Strona główna
METAR-TAF:

METAR-TAF

Lotnisko :

Upshur County Regional Airport

Buckhannon, Wirginia Zachodnia, Stany Zjednoczone

Szerokość geograficzna: 39-00N, Długość geograficzna: 080-16W, wysokość: 498 m

Aktualna obserwacja pogody

Raport powstał 21 minut temu, godzina 02:55 UTC
Cisza
Temperatura 25°C
Wilgotność 89%
Ciśnienie 1017 hPa
Widzialność: 16.1 km
bezchmurnie

METAR: KW22 210255Z AUTO 00000KT 10SM CLR 25/23 A3003 RMK AO2

czas: 23:16 (03:16 UTC)


TAF: brakujący

Obserwacja i prognoza pogody dla ponad 4000 lotnisk (raport METAR i TAF).

Dostępne stacje oznaczono żółtymi i czerwonymi punktami na mapie.

Najedź kursorem aby zobaczyć nazwę stacji.

Kliknij aby zobaczyć obserwacje i prognozy pogody.

Aby zmienić mapę: kliknij na zielony przycisk z czarnym krzyżykiem, aby powiększyć; na zielony przycisk z myślnikiem, aby pomniejszyć; na zielone strzałki, aby przejść do map sąsiednich.


METAR-TAF: